Time;durP1;ratioP1;P1;durP2;ratioP2;P2;SDS_P1;SDS_P2;PMS_P1;PMS_P2;Temp;Humidity;BMP_temperature;BMP_pressure;BME280_temperature;BME280_humidity;BME280_pressure;Samples;Min_cycle;Max_cycle;Signal;HPM_P1;HPM_P2
2024/03/04 00:00:48;;;;;;;34.33;21.17;;;;;;;;;;5068442;28;20052;-44
2024/03/04 00:03:15;;;;;;;40.95;20.98;;;;;;;;;;5067906;28;20331;-41
2024/03/04 00:05:42;;;;;;;37.75;20.90;;;;;;;;;;5067617;28;20060;-36
2024/03/04 00:08:09;;;;;;;37.58;20.35;;;;;;;;;;5067697;28;20055;-46
2024/03/04 00:10:35;;;;;;;48.17;20.92;;;;;;;;;;5067601;28;20036;-41
2024/03/04 00:13:02;;;;;;;29.42;20.30;;;;;;;;;;5067620;28;20021;-46
2024/03/04 00:15:28;;;;;;;26.13;19.60;;;;;;;;;;5068102;28;20025;-46
2024/03/04 00:17:55;;;;;;;29.17;19.60;;;;;;;;;;5067412;28;20029;-44
2024/03/04 00:20:22;;;;;;;30.45;20.58;;;;;;;;;;5067744;28;20033;-46
2024/03/04 00:22:49;;;;;;;28.23;19.30;;;;;;;;;;5067190;28;20035;-46
2024/03/04 00:25:16;;;;;;;33.40;19.63;;;;;;;;;;5067270;28;20029;-46
2024/03/04 00:27:47;;;;;;;30.77;20.27;;;;;;;;;;5067261;28;20025;-47
2024/03/04 00:30:14;;;;;;;34.53;19.83;;;;;;;;;;5067444;28;20029;-45
2024/03/04 00:32:41;;;;;;;32.58;20.10;;;;;;;;;;5068076;28;20044;-45
2024/03/04 00:35:10;;;;;;;110.35;24.80;;;;;;;;;;5059152;28;20033;-50
2024/03/04 00:37:41;;;;;;;65.95;22.88;;;;;;;;;;5055876;28;20024;-51
2024/03/04 00:40:08;;;;;;;38.92;21.45;;;;;;;;;;5066706;28;20077;-46
2024/03/04 00:42:37;;;;;;;39.40;21.05;;;;;;;;;;5057445;28;20160;-45
2024/03/04 00:45:05;;;;;;;30.92;18.80;;;;;;;;;;5057519;28;20043;-45
2024/03/04 00:47:35;;;;;;;29.55;19.45;;;;;;;;;;5066549;28;20094;-46
2024/03/04 00:50:02;;;;;;;34.60;19.52;;;;;;;;;;5065577;28;20325;-45
2024/03/04 00:52:29;;;;;;;43.25;20.70;;;;;;;;;;5055311;28;20021;-43
2024/03/04 00:54:56;;;;;;;43.97;20.67;;;;;;;;;;5055319;28;20025;-45
2024/03/04 00:57:23;;;;;;;32.10;19.08;;;;;;;;;;5046294;28;20017;-43
2024/03/04 00:59:49;;;;;;;24.02;18.55;;;;;;;;;;5046506;28;20258;-45
2024/03/04 01:02:16;;;;;;;37.17;20.25;;;;;;;;;;5054858;28;20251;-44
2024/03/04 01:04:44;;;;;;;24.92;19.17;;;;;;;;;;5066022;28;20024;-46
2024/03/04 01:07:11;;;;;;;25.00;18.90;;;;;;;;;;5066135;28;20029;-42
2024/03/04 01:09:37;;;;;;;25.10;18.45;;;;;;;;;;5066147;28;20033;-37
2024/03/04 01:12:04;;;;;;;29.77;18.95;;;;;;;;;;5065990;28;20248;-39
2024/03/04 01:14:31;;;;;;;26.20;18.90;;;;;;;;;;5066038;28;20024;-37
2024/03/04 01:16:57;;;;;;;30.50;18.88;;;;;;;;;;5066146;28;20037;-44
2024/03/04 01:19:24;;;;;;;24.40;19.02;;;;;;;;;;5065841;28;20024;-39
2024/03/04 01:21:51;;;;;;;27.80;18.67;;;;;;;;;;5066391;28;20084;-44
2024/03/04 01:24:17;;;;;;;23.90;18.95;;;;;;;;;;5058908;28;20021;-44
2024/03/04 01:26:44;;;;;;;28.30;17.98;;;;;;;;;;5048610;28;20083;-47
2024/03/04 01:29:11;;;;;;;30.77;18.95;;;;;;;;;;5045745;28;20029;-54
2024/03/04 01:31:37;;;;;;;28.08;18.63;;;;;;;;;;5053476;28;20021;-40
2024/03/04 01:34:04;;;;;;;30.45;18.65;;;;;;;;;;5057117;28;20016;-43
2024/03/04 01:36:31;;;;;;;39.75;19.42;;;;;;;;;;5058063;28;20030;-42
2024/03/04 01:38:58;;;;;;;37.45;19.02;;;;;;;;;;5052024;28;20026;-36
2024/03/04 01:41:24;;;;;;;44.58;20.00;;;;;;;;;;5053250;28;20335;-39
2024/03/04 01:43:51;;;;;;;44.20;21.00;;;;;;;;;;5065837;28;20363;-45
2024/03/04 01:46:20;;;;;;;45.80;20.30;;;;;;;;;;5057817;28;20052;-46
2024/03/04 01:48:47;;;;;;;44.13;20.70;;;;;;;;;;5045226;28;20072;-48
2024/03/04 01:51:13;;;;;;;27.33;19.85;;;;;;;;;;5050602;28;20302;-44
2024/03/04 01:53:41;;;;;;;34.50;19.00;;;;;;;;;;5051427;28;20048;-46
2024/03/04 01:56:08;;;;;;;37.90;19.88;;;;;;;;;;5045214;28;20221;-46
2024/03/04 01:58:37;;;;;;;28.58;19.58;;;;;;;;;;5045436;28;20053;-46
2024/03/04 02:01:07;;;;;;;29.98;19.10;;;;;;;;;;5045568;28;20093;-44
2024/03/04 02:03:35;;;;;;;28.27;20.00;;;;;;;;;;5044174;28;20021;-47
2024/03/04 02:06:03;;;;;;;33.67;18.75;;;;;;;;;;5045094;28;20033;-43
2024/03/04 02:08:29;;;;;;;25.90;18.60;;;;;;;;;;5045172;28;20021;-36
2024/03/04 02:10:56;;;;;;;25.42;18.73;;;;;;;;;;5045392;28;20025;-38
2024/03/04 02:13:23;;;;;;;25.98;18.70;;;;;;;;;;5045274;28;20018;-48
2024/03/04 02:15:50;;;;;;;34.03;18.63;;;;;;;;;;5052359;28;20052;-44
2024/03/04 02:18:20;;;;;;;24.58;18.30;;;;;;;;;;5058040;28;20055;-40
2024/03/04 02:20:49;;;;;;;19.67;17.50;;;;;;;;;;5045040;28;20198;-46
2024/03/04 02:23:15;;;;;;;24.10;18.35;;;;;;;;;;5045091;28;20210;-43
2024/03/04 02:25:54;;;;;;;30.70;17.90;;;;;;;;;;5054911;28;20043;-40
2024/03/04 02:28:27;;;;;;;31.45;17.27;;;;;;;;;;5064513;28;20021;-39
2024/03/04 02:30:54;;;;;;;19.05;16.88;;;;;;;;;;5064750;28;20096;-44
2024/03/04 02:33:21;;;;;;;27.75;18.08;;;;;;;;;;5064474;28;20027;-35
2024/03/04 02:35:49;;;;;;;30.08;19.08;;;;;;;;;;5064691;28;20049;-38
2024/03/04 02:38:17;;;;;;;20.83;17.33;;;;;;;;;;5064426;28;20021;-39
2024/03/04 02:40:44;;;;;;;22.92;17.38;;;;;;;;;;5064442;28;20036;-35
2024/03/04 02:43:11;;;;;;;19.48;17.05;;;;;;;;;;5064349;28;20271;-38
2024/03/04 02:45:38;;;;;;;27.08;17.90;;;;;;;;;;5064008;28;20068;-38
2024/03/04 02:48:06;;;;;;;24.83;17.65;;;;;;;;;;5064322;28;20076;-40
2024/03/04 02:50:36;;;;;;;19.67;17.60;;;;;;;;;;5064395;28;20045;-39
2024/03/04 02:53:03;;;;;;;19.92;17.67;;;;;;;;;;5064124;28;20017;-43
2024/03/04 02:55:30;;;;;;;21.45;16.92;;;;;;;;;;5050434;28;20024;-41
2024/03/04 02:57:56;;;;;;;20.13;17.13;;;;;;;;;;5055227;28;20017;-45
2024/03/04 03:00:23;;;;;;;25.70;16.67;;;;;;;;;;5044347;28;20041;-39
2024/03/04 03:02:49;;;;;;;25.17;17.48;;;;;;;;;;5044197;28;20025;-37
2024/03/04 03:05:16;;;;;;;22.02;16.88;;;;;;;;;;5044244;28;20229;-45
2024/03/04 03:07:42;;;;;;;20.30;16.10;;;;;;;;;;5057987;28;20022;-48
2024/03/04 03:10:09;;;;;;;22.90;16.88;;;;;;;;;;5047695;28;20020;-40
2024/03/04 03:12:36;;;;;;;18.52;15.95;;;;;;;;;;5062472;28;20021;-42
2024/03/04 03:15:02;;;;;;;24.33;16.50;;;;;;;;;;5063163;28;20029;-47
2024/03/04 03:17:29;;;;;;;20.40;16.58;;;;;;;;;;5063735;28;20024;-47
2024/03/04 03:19:56;;;;;;;21.45;16.70;;;;;;;;;;5063621;28;20321;-40
2024/03/04 03:22:22;;;;;;;19.75;17.15;;;;;;;;;;5063197;28;20017;-46
2024/03/04 03:24:49;;;;;;;19.02;17.02;;;;;;;;;;5063254;28;20021;-42
2024/03/04 03:27:16;;;;;;;19.75;17.25;;;;;;;;;;5063552;28;20255;-42
2024/03/04 03:29:42;;;;;;;23.45;16.70;;;;;;;;;;5063195;28;20126;-42
2024/03/04 03:32:09;;;;;;;18.65;16.70;;;;;;;;;;5063267;28;20020;-44
2024/03/04 03:34:36;;;;;;;19.88;17.83;;;;;;;;;;5063629;28;20032;-43
2024/03/04 03:37:02;;;;;;;20.00;17.90;;;;;;;;;;5063716;28;20052;-42
2024/03/04 03:39:29;;;;;;;22.15;16.90;;;;;;;;;;5063416;28;20021;-42
2024/03/04 03:41:55;;;;;;;20.63;18.42;;;;;;;;;;5063833;28;20025;-42
2024/03/04 03:44:22;;;;;;;31.23;19.92;;;;;;;;;;5063219;28;20310;-38
2024/03/04 03:46:48;;;;;;;21.27;17.77;;;;;;;;;;5063360;28;20364;-47
2024/03/04 03:49:16;;;;;;;21.73;17.65;;;;;;;;;;5063468;28;20079;-42
2024/03/04 03:51:44;;;;;;;20.63;18.42;;;;;;;;;;5062309;28;20193;-43
2024/03/04 03:54:11;;;;;;;21.55;18.48;;;;;;;;;;5061669;28;20048;-42
2024/03/04 03:56:40;;;;;;;22.67;18.20;;;;;;;;;;5062505;28;20088;-42
2024/03/04 03:59:07;;;;;;;20.52;18.15;;;;;;;;;;5062625;28;20097;-52
2024/03/04 04:01:33;;;;;;;20.52;18.42;;;;;;;;;;5063645;28;20345;-42
2024/03/04 04:04:00;;;;;;;18.45;16.48;;;;;;;;;;5063313;28;20028;-38
2024/03/04 04:06:26;;;;;;;19.73;17.40;;;;;;;;;;5063775;28;20029;-45
2024/03/04 04:08:53;;;;;;;18.60;16.67;;;;;;;;;;5063131;28;20032;-38
2024/03/04 04:11:20;;;;;;;19.42;17.38;;;;;;;;;;5063693;28;20028;-39
2024/03/04 04:13:46;;;;;;;19.08;17.33;;;;;;;;;;5062868;28;20028;-44
2024/03/04 04:16:13;;;;;;;21.48;18.30;;;;;;;;;;5063424;28;20028;-48
2024/03/04 04:18:41;;;;;;;19.55;17.52;;;;;;;;;;5063223;28;20040;-44
2024/03/04 04:21:08;;;;;;;19.65;17.73;;;;;;;;;;5061696;28;20025;-37
2024/03/04 04:23:35;;;;;;;20.65;18.38;;;;;;;;;;5063054;28;20024;-38
2024/03/04 04:26:02;;;;;;;21.80;17.55;;;;;;;;;;5063509;28;20047;-48
2024/03/04 04:28:28;;;;;;;20.50;18.60;;;;;;;;;;5064037;28;20028;-39
2024/03/04 04:30:55;;;;;;;25.98;18.80;;;;;;;;;;5066579;28;20025;-43
2024/03/04 04:33:22;;;;;;;20.15;18.02;;;;;;;;;;5057516;28;20035;-38
2024/03/04 04:35:49;;;;;;;20.08;18.13;;;;;;;;;;5065102;28;20025;-43
2024/03/04 04:38:19;;;;;;;22.13;18.67;;;;;;;;;;5066521;28;20024;-40
2024/03/04 04:40:46;;;;;;;21.77;17.63;;;;;;;;;;5066653;28;20057;-39
2024/03/04 04:43:13;;;;;;;22.52;18.05;;;;;;;;;;5063626;28;20021;-36
2024/03/04 04:45:39;;;;;;;21.17;17.73;;;;;;;;;;5066101;28;20045;-41
2024/03/04 04:48:06;;;;;;;21.83;17.98;;;;;;;;;;5066760;28;20017;-41
2024/03/04 04:50:33;;;;;;;22.33;17.95;;;;;;;;;;5065148;28;20055;-38
2024/03/04 04:52:59;;;;;;;20.17;16.90;;;;;;;;;;5066307;28;20310;-39
2024/03/04 04:55:26;;;;;;;20.98;18.02;;;;;;;;;;5066746;28;20316;-42
2024/03/04 04:57:52;;;;;;;21.48;17.45;;;;;;;;;;5066033;28;20013;-35
2024/03/04 05:00:19;;;;;;;19.63;17.50;;;;;;;;;;5066395;28;20039;-39
2024/03/04 05:02:46;;;;;;;23.05;18.17;;;;;;;;;;5064369;28;20036;-37
2024/03/04 05:05:13;;;;;;;22.95;17.42;;;;;;;;;;5066413;28;20029;-40
2024/03/04 05:07:40;;;;;;;23.35;17.83;;;;;;;;;;5066116;28;20100;-50
2024/03/04 05:10:06;;;;;;;19.65;17.75;;;;;;;;;;5066133;28;20377;-39
2024/03/04 05:12:33;;;;;;;21.65;17.10;;;;;;;;;;5065816;28;20024;-39
2024/03/04 05:14:59;;;;;;;19.85;17.65;;;;;;;;;;5066171;28;20088;-42
2024/03/04 05:17:26;;;;;;;19.00;16.92;;;;;;;;;;5064366;28;20040;-37
2024/03/04 05:19:53;;;;;;;19.13;17.20;;;;;;;;;;5065988;28;20032;-39
2024/03/04 05:22:20;;;;;;;18.65;16.75;;;;;;;;;;5065885;28;20034;-39
2024/03/04 05:24:46;;;;;;;17.88;16.08;;;;;;;;;;5064018;28;20021;-37
2024/03/04 05:27:13;;;;;;;18.63;16.80;;;;;;;;;;5065658;28;20212;-39
2024/03/04 05:29:40;;;;;;;18.67;16.70;;;;;;;;;;5065631;28;20329;-41
2024/03/04 05:32:06;;;;;;;17.98;16.15;;;;;;;;;;5065608;28;20377;-36
2024/03/04 05:34:33;;;;;;;18.73;16.70;;;;;;;;;;5065905;28;20012;-42
2024/03/04 05:37:00;;;;;;;19.17;17.10;;;;;;;;;;5063590;28;20029;-38
2024/03/04 05:39:31;;;;;;;17.65;15.98;;;;;;;;;;5064315;28;20025;-41
2024/03/04 05:41:58;;;;;;;20.38;16.75;;;;;;;;;;5065141;28;20078;-39
2024/03/04 05:44:25;;;;;;;18.33;16.50;;;;;;;;;;5065801;28;20063;-39
2024/03/04 05:46:51;;;;;;;17.75;16.05;;;;;;;;;;5065132;28;20053;-41
2024/03/04 05:49:18;;;;;;;17.55;15.73;;;;;;;;;;5065268;28;20375;-38
2024/03/04 05:51:45;;;;;;;18.05;16.35;;;;;;;;;;5065850;28;20097;-40
2024/03/04 05:54:11;;;;;;;18.23;16.55;;;;;;;;;;5065148;28;20079;-37
2024/03/04 05:56:41;;;;;;;17.50;15.82;;;;;;;;;;5064883;28;20067;-40
2024/03/04 05:59:09;;;;;;;17.63;15.98;;;;;;;;;;5065240;28;20017;-40
2024/03/04 06:01:36;;;;;;;16.60;14.98;;;;;;;;;;5065446;28;20033;-41
2024/03/04 06:04:02;;;;;;;19.20;15.77;;;;;;;;;;5065221;28;20021;-43
2024/03/04 06:06:29;;;;;;;17.65;15.73;;;;;;;;;;5065471;28;20025;-41
2024/03/04 06:08:58;;;;;;;18.40;16.17;;;;;;;;;;5064842;28;20025;-37
2024/03/04 06:11:28;;;;;;;17.55;15.20;;;;;;;;;;5064453;28;20021;-41
2024/03/04 06:13:55;;;;;;;17.08;15.48;;;;;;;;;;5064928;28;20021;-35
2024/03/04 06:16:22;;;;;;;17.55;15.75;;;;;;;;;;5065234;28;20048;-40
2024/03/04 06:18:48;;;;;;;16.58;14.98;;;;;;;;;;5062914;28;20028;-38
2024/03/04 06:21:15;;;;;;;17.48;15.50;;;;;;;;;;5065001;28;20020;-39
2024/03/04 06:23:41;;;;;;;17.08;14.90;;;;;;;;;;5064585;28;20325;-39
2024/03/04 06:26:11;;;;;;;16.98;15.32;;;;;;;;;;5063095;28;20036;-36
2024/03/04 06:28:38;;;;;;;17.25;15.43;;;;;;;;;;5063196;28;20029;-38
2024/03/04 06:31:05;;;;;;;20.15;15.30;;;;;;;;;;5064852;28;20041;-39
2024/03/04 06:33:32;;;;;;;16.60;14.77;;;;;;;;;;5064561;28;20025;-40
2024/03/04 06:35:58;;;;;;;16.55;14.90;;;;;;;;;;5064907;28;20204;-40
2024/03/04 06:38:25;;;;;;;19.20;14.38;;;;;;;;;;5064470;28;20017;-44
2024/03/04 06:40:53;;;;;;;19.17;15.30;;;;;;;;;;5063650;28;20070;-41
2024/03/04 06:43:19;;;;;;;16.58;14.77;;;;;;;;;;5064407;28;20303;-39
2024/03/04 06:45:46;;;;;;;16.45;14.77;;;;;;;;;;5064080;28;20097;-38
2024/03/04 06:48:12;;;;;;;16.17;14.27;;;;;;;;;;5064369;28;20013;-43
2024/03/04 06:50:39;;;;;;;16.02;14.48;;;;;;;;;;5064039;28;20025;-38
2024/03/04 06:53:08;;;;;;;27.40;15.40;;;;;;;;;;5064067;28;20013;-35
2024/03/04 06:55:35;;;;;;;18.70;15.63;;;;;;;;;;5062334;28;20246;-47
2024/03/04 06:58:02;;;;;;;20.98;17.35;;;;;;;;;;5064252;28;20027;-40
2024/03/04 07:00:28;;;;;;;22.35;19.05;;;;;;;;;;5064161;28;20049;-47
2024/03/04 07:02:55;;;;;;;24.08;19.42;;;;;;;;;;5064049;28;20021;-42
2024/03/04 07:05:21;;;;;;;23.25;19.02;;;;;;;;;;5064152;28;20319;-38
2024/03/04 07:07:48;;;;;;;27.13;18.30;;;;;;;;;;5062511;28;20217;-49
2024/03/04 07:10:15;;;;;;;20.20;17.20;;;;;;;;;;5063562;28;20191;-49
2024/03/04 07:12:41;;;;;;;18.90;16.23;;;;;;;;;;5062299;28;20035;-43
2024/03/04 07:15:08;;;;;;;20.10;15.77;;;;;;;;;;5063488;28;20096;-40
2024/03/04 07:17:34;;;;;;;17.95;15.55;;;;;;;;;;5062417;28;20021;-44
2024/03/04 07:20:02;;;;;;;18.13;15.20;;;;;;;;;;5063827;28;20028;-49
2024/03/04 07:22:28;;;;;;;18.15;16.20;;;;;;;;;;5062139;28;20024;-50
2024/03/04 07:24:55;;;;;;;17.63;15.70;;;;;;;;;;5063812;28;20051;-39
2024/03/04 07:27:21;;;;;;;17.98;16.17;;;;;;;;;;5063679;28;20044;-39
2024/03/04 07:29:48;;;;;;;16.75;15.05;;;;;;;;;;5063418;28;20025;-42
2024/03/04 07:32:15;;;;;;;17.75;15.23;;;;;;;;;;5063743;28;20016;-43
2024/03/04 07:34:41;;;;;;;17.25;15.48;;;;;;;;;;5063802;28;20020;-40
2024/03/04 07:37:08;;;;;;;17.15;15.43;;;;;;;;;;5060270;28;20027;-36
2024/03/04 07:39:34;;;;;;;15.98;13.98;;;;;;;;;;5061838;28;20089;-38
2024/03/04 07:42:01;;;;;;;16.17;14.63;;;;;;;;;;5063274;28;20035;-49
2024/03/04 07:44:28;;;;;;;15.98;14.40;;;;;;;;;;5061689;28;20025;-40
2024/03/04 07:46:54;;;;;;;16.90;14.63;;;;;;;;;;5063340;28;20045;-49
2024/03/04 07:49:21;;;;;;;15.90;14.30;;;;;;;;;;5063565;28;20047;-49
2024/03/04 07:51:47;;;;;;;16.02;14.52;;;;;;;;;;5062181;28;20021;-37
2024/03/04 07:54:14;;;;;;;16.83;15.10;;;;;;;;;;5063522;28;20024;-42
2024/03/04 07:56:40;;;;;;;16.17;14.57;;;;;;;;;;5063541;28;20096;-44
2024/03/04 07:59:07;;;;;;;15.38;13.98;;;;;;;;;;5063375;28;20028;-46
2024/03/04 08:01:34;;;;;;;16.67;14.65;;;;;;;;;;5063812;28;20044;-43
2024/03/04 08:04:00;;;;;;;16.27;14.38;;;;;;;;;;5067475;28;20025;-37
2024/03/04 08:06:27;;;;;;;15.40;13.95;;;;;;;;;;5067854;28;20029;-46
2024/03/04 08:08:53;;;;;;;16.15;14.65;;;;;;;;;;5067265;28;20090;-41
2024/03/04 08:11:20;;;;;;;15.50;14.05;;;;;;;;;;5067307;28;20248;-42
2024/03/04 08:13:47;;;;;;;15.95;14.30;;;;;;;;;;5067226;28;20017;-42
2024/03/04 08:16:13;;;;;;;16.20;14.50;;;;;;;;;;5067435;28;20024;-38
2024/03/04 08:18:40;;;;;;;15.63;14.02;;;;;;;;;;5067255;28;20023;-42
2024/03/04 08:21:07;;;;;;;18.35;13.75;;;;;;;;;;5066951;28;20292;-42
2024/03/04 08:23:34;;;;;;;17.35;14.85;;;;;;;;;;5065834;28;20048;-40
2024/03/04 08:26:00;;;;;;;15.80;14.20;;;;;;;;;;5066306;28;20035;-39
2024/03/04 08:28:27;;;;;;;16.15;14.38;;;;;;;;;;5066248;28;20033;-41
2024/03/04 08:30:54;;;;;;;15.93;14.35;;;;;;;;;;5066980;28;20025;-37
2024/03/04 08:33:20;;;;;;;15.57;13.73;;;;;;;;;;5065590;28;20213;-43
2024/03/04 08:35:47;;;;;;;16.02;13.90;;;;;;;;;;5067093;28;20305;-43
2024/03/04 08:38:14;;;;;;;15.65;14.10;;;;;;;;;;5065879;28;20088;-40
2024/03/04 08:40:40;;;;;;;16.05;14.40;;;;;;;;;;5067392;28;20209;-37
2024/03/04 08:43:07;;;;;;;15.32;13.80;;;;;;;;;;5066044;28;20024;-41
2024/03/04 08:45:34;;;;;;;15.45;13.82;;;;;;;;;;5066451;28;20079;-37
2024/03/04 08:48:01;;;;;;;15.50;13.30;;;;;;;;;;5066979;28;20252;-43
2024/03/04 08:50:27;;;;;;;15.77;14.15;;;;;;;;;;5066714;28;20031;-40
2024/03/04 08:52:54;;;;;;;14.80;13.35;;;;;;;;;;5066816;28;20013;-38
2024/03/04 08:55:24;;;;;;;15.05;13.45;;;;;;;;;;5067035;28;20388;-46
2024/03/04 08:57:51;;;;;;;18.88;14.48;;;;;;;;;;5066620;28;20036;-42
2024/03/04 09:00:18;;;;;;;16.45;14.73;;;;;;;;;;5066478;28;20052;-41
2024/03/04 09:02:44;;;;;;;16.70;14.57;;;;;;;;;;5066436;28;20326;-44
2024/03/04 09:05:11;;;;;;;15.85;14.00;;;;;;;;;;5066555;28;20032;-43
2024/03/04 09:07:38;;;;;;;17.25;13.95;;;;;;;;;;5066514;28;20028;-38
2024/03/04 09:10:04;;;;;;;15.27;13.80;;;;;;;;;;5066763;28;20032;-49
2024/03/04 09:12:31;;;;;;;19.85;15.55;;;;;;;;;;5065884;28;20076;-36
2024/03/04 09:14:58;;;;;;;18.35;14.85;;;;;;;;;;5066470;28;20093;-50
2024/03/04 09:17:25;;;;;;;21.27;15.45;;;;;;;;;;5066303;28;20017;-47
2024/03/04 09:19:51;;;;;;;19.65;14.95;;;;;;;;;;5066272;28;20228;-43
2024/03/04 09:22:18;;;;;;;23.23;15.65;;;;;;;;;;5066230;28;20017;-47
2024/03/04 09:24:45;;;;;;;25.08;15.50;;;;;;;;;;5066080;28;20025;-43
2024/03/04 09:27:13;;;;;;;34.25;15.52;;;;;;;;;;5066367;28;20220;-40
2024/03/04 09:29:39;;;;;;;34.38;16.30;;;;;;;;;;5066218;28;20331;-44
2024/03/04 09:32:06;;;;;;;34.10;17.25;;;;;;;;;;5066059;28;20029;-38
2024/03/04 09:34:33;;;;;;;29.60;16.27;;;;;;;;;;5066230;28;20045;-37
2024/03/04 09:37:01;;;;;;;33.90;16.00;;;;;;;;;;5066249;28;20089;-44
2024/03/04 09:39:28;;;;;;;30.45;15.93;;;;;;;;;;5065846;28;20096;-38
2024/03/04 09:41:55;;;;;;;41.55;16.50;;;;;;;;;;5066348;28;20044;-44
2024/03/04 09:44:27;;;;;;;32.78;16.60;;;;;;;;;;5065558;28;20217;-46
2024/03/04 09:46:55;;;;;;;27.42;16.08;;;;;;;;;;5065482;28;20096;-41
2024/03/04 09:49:28;;;;;;;23.42;15.52;;;;;;;;;;5065798;28;20103;-51
2024/03/04 09:52:00;;;;;;;20.13;14.05;;;;;;;;;;5066044;28;20029;-55
2024/03/04 09:54:28;;;;;;;24.27;15.10;;;;;;;;;;5066007;28;20067;-39
2024/03/04 09:56:55;;;;;;;23.60;15.13;;;;;;;;;;5065336;28;20054;-41
2024/03/04 09:59:22;;;;;;;23.08;14.82;;;;;;;;;;5065458;28;20021;-39
2024/03/04 10:01:49;;;;;;;25.63;14.65;;;;;;;;;;5065944;28;20028;-40
2024/03/04 10:04:15;;;;;;;22.40;13.48;;;;;;;;;;5065490;28;20043;-41
2024/03/04 10:06:42;;;;;;;18.35;13.98;;;;;;;;;;5065492;28;20028;-44
2024/03/04 10:09:12;;;;;;;19.20;13.82;;;;;;;;;;5065524;28;20048;-38
2024/03/04 10:11:43;;;;;;;18.27;13.30;;;;;;;;;;5065703;28;20021;-40
2024/03/04 10:14:10;;;;;;;19.63;14.20;;;;;;;;;;5065530;28;20204;-41
2024/03/04 10:16:37;;;;;;;15.85;13.25;;;;;;;;;;5065424;28;20071;-44
2024/03/04 10:19:04;;;;;;;18.52;13.43;;;;;;;;;;5065210;28;20222;-40
2024/03/04 10:21:31;;;;;;;15.30;13.45;;;;;;;;;;5065120;28;20054;-37
2024/03/04 10:23:59;;;;;;;16.08;13.50;;;;;;;;;;5064668;28;20020;-42
2024/03/04 10:26:28;;;;;;;18.05;13.63;;;;;;;;;;5064738;28;20020;-48
2024/03/04 10:28:55;;;;;;;18.52;13.52;;;;;;;;;;5064633;28;20033;-40
2024/03/04 10:31:22;;;;;;;17.02;13.82;;;;;;;;;;5065318;28;20032;-38
2024/03/04 10:33:49;;;;;;;21.10;14.13;;;;;;;;;;5064851;28;20025;-39
2024/03/04 10:36:17;;;;;;;21.17;14.10;;;;;;;;;;5065158;28;20025;-40
2024/03/04 10:38:45;;;;;;;36.72;15.63;;;;;;;;;;5064506;28;20052;-44
2024/03/04 10:41:25;;;;;;;38.13;16.38;;;;;;;;;;5064400;28;20375;-45
2024/03/04 10:43:52;;;;;;;34.38;15.60;;;;;;;;;;5064522;28;20071;-46
2024/03/04 10:46:20;;;;;;;32.20;16.40;;;;;;;;;;5064313;28;20358;-44
2024/03/04 10:48:47;;;;;;;31.30;15.95;;;;;;;;;;5064102;28;20031;-39
2024/03/04 10:51:17;;;;;;;41.80;17.23;;;;;;;;;;5064676;28;20029;-38
2024/03/04 10:53:46;;;;;;;37.90;16.48;;;;;;;;;;5064637;28;20028;-38
2024/03/04 10:56:16;;;;;;;29.73;16.45;;;;;;;;;;5064491;28;20206;-40
2024/03/04 10:58:43;;;;;;;34.08;16.50;;;;;;;;;;5064299;28;20039;-39
2024/03/04 11:01:19;;;;;;;29.88;16.08;;;;;;;;;;5064573;28;20250;-40
2024/03/04 11:03:57;;;;;;;31.52;16.50;;;;;;;;;;5064000;28;20037;-45
2024/03/04 11:06:25;;;;;;;32.22;16.17;;;;;;;;;;5064428;28;20032;-47
2024/03/04 11:09:03;;;;;;;31.27;16.50;;;;;;;;;;5063753;28;20324;-47
2024/03/04 11:11:39;;;;;;;29.58;16.60;;;;;;;;;;5064588;28;20071;-46
2024/03/04 11:14:32;;;;;;;37.60;16.55;;;;;;;;;;5064173;28;20076;-38
2024/03/04 11:17:28;;;;;;;27.08;17.00;;;;;;;;;;5063991;28;20340;-37
2024/03/04 11:19:56;;;;;;;31.60;16.88;;;;;;;;;;5059451;28;20037;-46
2024/03/04 11:22:23;;;;;;;30.55;16.70;;;;;;;;;;5064367;28;20020;-53
2024/03/04 11:24:51;;;;;;;32.83;17.55;;;;;;;;;;5064200;28;20074;-47
2024/03/04 11:27:18;;;;;;;32.65;17.33;;;;;;;;;;5063850;28;20062;-51
2024/03/04 11:29:45;;;;;;;27.33;17.05;;;;;;;;;;5063738;28;20024;-47
2024/03/04 11:32:12;;;;;;;37.10;16.73;;;;;;;;;;5063985;28;20012;-48
2024/03/04 11:34:58;;;;;;;31.85;17.15;;;;;;;;;;5063734;28;20089;-39
2024/03/04 11:37:31;;;;;;;32.40;17.38;;;;;;;;;;5063590;28;20028;-39
2024/03/04 11:39:58;;;;;;;32.97;17.17;;;;;;;;;;5063734;28;20201;-41
2024/03/04 11:42:44;;;;;;;34.83;18.05;;;;;;;;;;5063524;28;20032;-46
2024/03/04 11:45:17;;;;;;;24.50;17.38;;;;;;;;;;5063420;28;20055;-37
2024/03/04 11:47:43;;;;;;;37.75;17.60;;;;;;;;;;5063447;28;20040;-40
2024/03/04 11:50:30;;;;;;;43.00;18.48;;;;;;;;;;5063607;28;20092;-43
2024/03/04 11:52:59;;;;;;;44.75;18.50;;;;;;;;;;5063450;28;20017;-48
2024/03/04 11:55:25;;;;;;;35.63;17.50;;;;;;;;;;5063838;28;20072;-42
2024/03/04 11:57:52;;;;;;;40.70;18.45;;;;;;;;;;5063448;28;20067;-44
2024/03/04 12:00:22;;;;;;;47.35;17.40;;;;;;;;;;5063627;28;20240;-47
2024/03/04 12:03:10;;;;;;;56.92;18.80;;;;;;;;;;5063631;28;20025;-41
2024/03/04 12:05:38;;;;;;;38.83;17.00;;;;;;;;;;5063520;28;20071;-50
2024/03/04 12:08:04;;;;;;;49.85;17.50;;;;;;;;;;5063043;28;20023;-55
2024/03/04 12:10:31;;;;;;;44.53;17.00;;;;;;;;;;5063634;28;20036;-47
2024/03/04 12:12:58;;;;;;;64.15;17.80;;;;;;;;;;5063610;28;20093;-43
2024/03/04 12:15:24;;;;;;;57.15;17.77;;;;;;;;;;5063561;28;20036;-47
2024/03/04 12:17:51;;;;;;;76.55;17.70;;;;;;;;;;5063397;28;20039;-41
2024/03/04 12:20:18;;;;;;;66.07;17.35;;;;;;;;;;5063388;28;20032;-43
2024/03/04 12:22:44;;;;;;;57.33;16.33;;;;;;;;;;5063639;28;20016;-46
2024/03/04 12:25:12;;;;;;;50.60;16.23;;;;;;;;;;5063141;28;20096;-48
2024/03/04 12:27:42;;;;;;;44.60;17.55;;;;;;;;;;5063111;28;20213;-41
2024/03/04 12:30:12;;;;;;;45.28;18.83;;;;;;;;;;5063309;28;20377;-36
2024/03/04 12:32:39;;;;;;;40.17;16.88;;;;;;;;;;5063449;28;20084;-41
2024/03/04 12:35:22;;;;;;;35.28;16.70;;;;;;;;;;5063408;28;20197;-53
2024/03/04 12:37:53;;;;;;;32.35;15.85;;;;;;;;;;5063114;28;20080;-40
2024/03/04 12:40:23;;;;;;;34.58;16.15;;;;;;;;;;5063159;28;20035;-43
2024/03/04 12:42:59;;;;;;;32.40;15.35;;;;;;;;;;5063151;28;20025;-39
2024/03/04 12:45:27;;;;;;;25.20;14.93;;;;;;;;;;5062896;28;20060;-39
2024/03/04 12:47:55;;;;;;;36.80;14.40;;;;;;;;;;5063621;28;20092;-45
2024/03/04 12:50:22;;;;;;;28.60;16.00;;;;;;;;;;5066635;28;20052;-49
2024/03/04 12:52:49;;;;;;;29.30;14.80;;;;;;;;;;5066603;28;20024;-51
2024/03/04 12:55:17;;;;;;;19.83;14.48;;;;;;;;;;5066818;28;20293;-47
2024/03/04 12:57:44;;;;;;;25.45;14.48;;;;;;;;;;5066642;28;20024;-51
2024/03/04 13:00:14;;;;;;;30.65;14.50;;;;;;;;;;5066679;28;20096;-44
2024/03/04 13:02:44;;;;;;;24.80;13.70;;;;;;;;;;5066634;28;20029;-43
2024/03/04 13:05:11;;;;;;;22.50;13.98;;;;;;;;;;5066456;28;20130;-43
2024/03/04 13:07:39;;;;;;;24.65;14.10;;;;;;;;;;5066427;28;20317;-46
2024/03/04 13:10:06;;;;;;;26.80;13.90;;;;;;;;;;5066126;28;20037;-44
2024/03/04 13:12:35;;;;;;;26.00;14.30;;;;;;;;;;5066158;28;20017;-46
2024/03/04 13:15:02;;;;;;;26.90;13.43;;;;;;;;;;5066116;28;20102;-37
2024/03/04 13:17:29;;;;;;;20.77;13.85;;;;;;;;;;5066213;28;20021;-37
2024/03/04 13:19:56;;;;;;;24.13;13.60;;;;;;;;;;5066677;28;20269;-44
2024/03/04 13:22:22;;;;;;;25.63;14.45;;;;;;;;;;5065985;28;20213;-43
2024/03/04 13:24:51;;;;;;;28.45;15.68;;;;;;;;;;5066420;28;20067;-37
2024/03/04 13:27:19;;;;;;;24.52;14.25;;;;;;;;;;5065847;28;20043;-37
2024/03/04 13:29:45;;;;;;;23.25;14.85;;;;;;;;;;5066173;28;20021;-40
2024/03/04 13:32:12;;;;;;;23.02;13.90;;;;;;;;;;5066476;28;20020;-39
2024/03/04 13:34:38;;;;;;;25.10;14.52;;;;;;;;;;5066530;28;20041;-41
2024/03/04 13:37:05;;;;;;;20.42;13.73;;;;;;;;;;5065964;28;20024;-41
2024/03/04 13:39:32;;;;;;;25.92;14.88;;;;;;;;;;5065797;28;20035;-43
2024/03/04 13:41:59;;;;;;;22.80;13.60;;;;;;;;;;5065808;28;20020;-40
2024/03/04 13:44:26;;;;;;;30.88;14.90;;;;;;;;;;5065569;28;20234;-44
2024/03/04 13:46:52;;;;;;;40.78;15.65;;;;;;;;;;5065395;28;20064;-39
2024/03/04 13:49:19;;;;;;;29.83;15.18;;;;;;;;;;5065637;28;20213;-51
2024/03/04 13:51:47;;;;;;;31.52;14.90;;;;;;;;;;5065916;28;20385;-46
2024/03/04 13:54:13;;;;;;;44.15;16.00;;;;;;;;;;5065497;28;20025;-41
2024/03/04 13:56:40;;;;;;;33.72;14.70;;;;;;;;;;5065522;28;20040;-40
2024/03/04 13:59:09;;;;;;;32.80;15.43;;;;;;;;;;5065238;28;20025;-39
2024/03/04 14:01:37;;;;;;;28.02;15.10;;;;;;;;;;5065435;28;20071;-44
2024/03/04 14:04:04;;;;;;;34.58;15.75;;;;;;;;;;5065479;28;20135;-44
2024/03/04 14:06:31;;;;;;;42.58;16.90;;;;;;;;;;5065828;28;20074;-50
2024/03/04 14:08:57;;;;;;;37.15;16.08;;;;;;;;;;5065876;28;20033;-38
2024/03/04 14:11:24;;;;;;;31.63;16.08;;;;;;;;;;5066020;28;20051;-43
2024/03/04 14:13:51;;;;;;;37.20;16.63;;;;;;;;;;5065216;28;20016;-40
2024/03/04 14:16:17;;;;;;;39.63;15.98;;;;;;;;;;5065374;28;20205;-47
2024/03/04 14:18:44;;;;;;;26.83;15.70;;;;;;;;;;5065300;28;20367;-46